หน้าหลัก
METAR-TAF:

METAR-TAF

ท่าอากาศยาน :

Zaria, ไนจีเรีย

ละติจูด: 11-08N, ลองจิจูด: 007-41E, ความสูง: 664 ม.

การสังเกตสภาพอากาศปัจจุบัน

รายงานได้ทำขึ้นเมื่อ 11 ชั่วโมงและ 44 นาทีที่แล้ว ณ เวลา 07:00 UTC
ลม 10 นอตจากตะวันตก
อุณหภูมิ 23°C
ความชื้น 89%
ความกดอากาศ 1015 hPa
ทัศนวิสัย 10 กม. หรือมากกว่า
มีเมฆเป็นส่วนมากเว้นเป็นระยะที่ความสูง 900 ฟุต

METAR: DNZA 200700Z 27010KT 9999 BKN009 23/21 Q1015

เวลา: 19:44 (18:44 UTC)


TAF: หายไป

สังเกตการณ์สภาพอากาศและพยากรณ์อากาศของสนามบินมากกว่า 4000 แห่ง (รายงาน METAR และ TAF).

สถานีที่ดูได้จะแสดงไว้ด้วยจุดสีเหลืองและสีแดงบนแผนที่.

เลื่อนเมาส์ไปเหนือจุดเพื่อดูชื่อสถานี.

แล้วคลิกเพื่อดูสังเกตการณ์และการพยากรณ์สภาพอากาศ.

ในการเปลี่ยนแผนที่: คลิกที่ปุ่มสีเขียวที่มีกากบาทสีดำเพื่อซูมเข้า; ที่ปุ่มสีเขียวที่มีขีดเพื่อซูมออก; หรือที่ลูกศรสีเขียวเพื่อไปยังแผนที่ที่อยู่ติดกัน.


METAR-TAF: